createdAt,value
2022-11-12T00:00:50.454Z,102851.56
2022-11-12T00:03:16.930Z,102856.47
2022-11-12T00:05:45.044Z,102859.16
2022-11-12T00:08:11.776Z,102859.47
2022-11-12T00:10:38.333Z,102849.44
2022-11-12T00:13:04.858Z,102855.00
2022-11-12T00:15:31.319Z,102850.88
2022-11-12T00:17:57.737Z,102851.66
2022-11-12T00:20:24.154Z,102858.22
2022-11-12T00:22:50.551Z,102856.28
2022-11-12T00:25:17.132Z,102861.84
2022-11-12T00:27:43.546Z,102863.22
2022-11-12T00:30:10.591Z,102861.34
2022-11-12T00:32:37.913Z,102868.41
2022-11-12T00:35:06.847Z,102859.47
2022-11-12T00:37:35.366Z,102860.09
2022-11-12T00:40:01.810Z,102861.53
2022-11-12T00:42:28.237Z,102870.38
2022-11-12T00:44:54.923Z,102870.78
2022-11-12T00:47:21.394Z,102869.06
2022-11-12T00:49:47.822Z,102860.41
2022-11-12T00:52:14.301Z,102859.72
2022-11-12T00:54:40.740Z,102864.03
2022-11-12T00:57:07.181Z,102870.41
2022-11-12T00:59:33.654Z,102855.31
2022-11-12T01:02:00.135Z,102865.22
2022-11-12T01:04:26.877Z,102866.09
2022-11-12T01:06:53.419Z,102858.13
2022-11-12T01:09:19.998Z,102864.56
2022-11-12T01:11:46.437Z,102860.53
2022-11-12T01:14:12.942Z,102869.34
2022-11-12T01:16:40.516Z,102863.03
2022-11-12T01:19:09.271Z,102862.44
2022-11-12T01:21:39.779Z,102863.03
2022-11-12T01:24:07.084Z,102859.09
2022-11-12T01:26:33.645Z,102852.53
2022-11-12T01:29:00.131Z,102867.53
2022-11-12T01:31:29.994Z,102865.31
2022-11-12T01:34:02.115Z,102866.28
2022-11-12T01:36:33.736Z,102864.84
2022-11-12T01:39:00.346Z,102871.84
2022-11-12T01:41:29.675Z,102860.59
2022-11-12T01:44:10.718Z,102847.75
2022-11-12T01:47:03.069Z,102848.09
2022-11-12T01:49:35.661Z,102839.78
2022-11-12T01:52:10.504Z,102829.31
2022-11-12T01:54:38.459Z,102832.94
2022-11-12T01:57:05.523Z,102839.31
2022-11-12T01:59:37.925Z,102839.31
2022-11-12T02:02:04.974Z,102835.84
2022-11-12T02:04:33.572Z,102837.19
2022-11-12T02:07:02.127Z,102846.84
2022-11-12T02:09:29.524Z,102842.66
2022-11-12T02:11:55.963Z,102843.03
2022-11-12T02:14:22.505Z,102840.69
2022-11-12T02:16:49.178Z,102837.34
2022-11-12T02:19:16.648Z,102836.09
2022-11-12T02:21:43.728Z,102828.72
2022-11-12T02:24:13.140Z,102826.13
2022-11-12T02:26:52.554Z,102817.28
2022-11-12T02:29:19.488Z,102825.22
2022-11-12T02:31:45.907Z,102819.59
2022-11-12T02:34:12.356Z,102824.84
2022-11-12T02:36:38.829Z,102823.63
2022-11-12T02:39:05.504Z,102828.41
2022-11-12T02:41:32.329Z,102826.78
2022-11-12T02:43:58.778Z,102822.53
2022-11-12T02:46:25.261Z,102826.03
2022-11-12T02:48:51.934Z,102828.38
2022-11-12T02:51:18.400Z,102833.50
2022-11-12T02:53:44.864Z,102834.81
2022-11-12T02:56:11.307Z,102832.50
2022-11-12T02:58:37.693Z,102832.78
2022-11-12T03:01:04.362Z,102835.22
2022-11-12T03:03:30.859Z,102832.63
2022-11-12T03:06:00.224Z,102838.25
2022-11-12T03:08:27.651Z,102840.13
2022-11-12T03:10:54.396Z,102830.25
2022-11-12T03:13:21.245Z,102816.00
2022-11-12T03:15:47.701Z,102820.94
2022-11-12T03:18:14.211Z,102820.97
2022-11-12T03:20:40.653Z,102814.53
2022-11-12T03:23:09.769Z,102811.69
2022-11-12T03:25:36.819Z,102814.59
2022-11-12T03:28:11.631Z,102811.44
2022-11-12T03:30:40.230Z,102816.00
2022-11-12T03:33:08.521Z,102801.75
2022-11-12T03:35:35.687Z,102813.75
2022-11-12T03:38:02.840Z,102810.69
2022-11-12T03:40:29.994Z,102803.69
2022-11-12T03:42:56.677Z,102809.88
2022-11-12T03:45:25.825Z,102802.91
2022-11-12T03:47:54.594Z,102810.28
2022-11-12T03:50:24.279Z,102804.72
2022-11-12T03:52:53.445Z,102814.25
2022-11-12T03:55:21.930Z,102806.94
2022-11-12T03:57:50.140Z,102812.19
2022-11-12T04:00:17.684Z,102816.63
2022-11-12T04:02:44.106Z,102813.47
2022-11-12T04:05:29.297Z,102818.38
2022-11-12T04:08:25.467Z,102820.63
2022-11-12T04:10:52.583Z,102827.50
2022-11-12T04:13:27.894Z,102834.09
2022-11-12T04:16:19.617Z,102833.50
2022-11-12T04:19:06.672Z,102830.31
2022-11-12T04:21:56.397Z,102826.56
2022-11-12T04:24:52.459Z,102832.16
2022-11-12T04:27:23.961Z,102825.41
2022-11-12T04:30:09.708Z,102828.97
2022-11-12T04:32:38.703Z,102832.41
2022-11-12T04:35:07.465Z,102823.56
2022-11-12T04:37:45.261Z,102824.66
2022-11-12T04:40:44.881Z,102818.53
2022-11-12T04:43:32.480Z,102815.28
2022-11-12T04:45:59.826Z,102815.13
2022-11-12T04:48:27.008Z,102802.56
2022-11-12T04:50:57.751Z,102807.09
2022-11-12T04:53:25.163Z,102799.63
2022-11-12T04:55:53.179Z,102808.56
2022-11-12T04:58:20.005Z,102803.53
2022-11-12T05:00:47.356Z,102800.34
2022-11-12T05:03:13.795Z,102797.50
2022-11-12T05:05:40.242Z,102796.19
2022-11-12T05:08:06.739Z,102791.88
2022-11-12T05:10:33.364Z,102797.41
2022-11-12T05:13:00.266Z,102785.78
2022-11-12T05:15:26.758Z,102790.53
2022-11-12T05:17:53.306Z,102785.59
2022-11-12T05:20:19.814Z,102780.88
2022-11-12T05:23:04.505Z,102784.69
2022-11-12T05:25:32.501Z,102781.97
2022-11-12T05:27:58.958Z,102775.59
2022-11-12T05:30:25.436Z,102775.50
2022-11-12T05:32:51.898Z,102779.81
2022-11-12T05:35:18.433Z,102777.53
2022-11-12T05:37:44.916Z,102767.03
2022-11-12T05:40:12.013Z,102774.03
2022-11-12T05:42:38.431Z,102778.59
2022-11-12T05:45:05.475Z,102783.31
2022-11-12T05:47:31.907Z,102784.44
2022-11-12T05:49:58.289Z,102788.56
2022-11-12T05:52:24.709Z,102787.25
2022-11-12T05:54:51.158Z,102790.72
2022-11-12T05:57:17.541Z,102795.88
2022-11-12T05:59:43.945Z,102798.81
2022-11-12T06:02:10.408Z,102797.69
2022-11-12T06:04:36.840Z,102793.88
2022-11-12T06:07:04.295Z,102792.47
2022-11-12T06:09:30.900Z,102788.31
2022-11-12T06:11:57.376Z,102792.06
2022-11-12T06:14:23.764Z,102786.97
2022-11-12T06:16:50.186Z,102794.81
2022-11-12T06:19:16.678Z,102793.53
2022-11-12T06:21:43.134Z,102786.59
2022-11-12T06:24:10.180Z,102796.19
2022-11-12T06:26:37.971Z,102798.13
2022-11-12T06:29:04.458Z,102795.91
2022-11-12T06:31:30.976Z,102793.47
2022-11-12T06:33:57.442Z,102804.09
2022-11-12T06:36:24.539Z,102799.19
2022-11-12T06:38:50.988Z,102798.13
2022-11-12T06:41:17.474Z,102798.63
2022-11-12T06:43:43.989Z,102796.97
2022-11-12T06:46:15.887Z,102798.81
2022-11-12T06:48:42.358Z,102805.75
2022-11-12T06:51:12.493Z,102808.00
2022-11-12T06:53:38.994Z,102809.56
2022-11-12T06:56:07.139Z,102800.38
2022-11-12T06:58:34.284Z,102791.91
2022-11-12T07:01:19.035Z,102801.44
2022-11-12T07:03:45.762Z,102811.63
2022-11-12T07:06:15.575Z,102814.75
2022-11-12T07:08:42.260Z,102819.44
2022-11-12T07:11:09.758Z,102816.38
2022-11-12T07:13:36.612Z,102820.91
2022-11-12T07:16:04.602Z,102827.31
2022-11-12T07:18:31.663Z,102820.78
2022-11-12T07:21:05.957Z,102823.06
2022-11-12T07:23:34.112Z,102824.97
2022-11-12T07:26:03.451Z,102822.31
2022-11-12T07:28:30.769Z,102830.91
2022-11-12T07:31:02.665Z,102829.53
2022-11-12T07:33:34.253Z,102827.94
2022-11-12T07:36:01.942Z,102834.09
2022-11-12T07:38:30.241Z,102823.09
2022-11-12T07:41:01.393Z,102824.03
2022-11-12T07:43:31.581Z,102820.75
2022-11-12T07:46:07.497Z,102825.59
2022-11-12T07:48:37.654Z,102825.41
2022-11-12T07:51:12.744Z,102831.16
2022-11-12T07:53:43.342Z,102824.28
2022-11-12T07:56:11.848Z,102827.16
2022-11-12T07:58:38.517Z,102835.97
2022-11-12T08:01:23.166Z,102836.41
2022-11-12T08:03:49.809Z,102840.47
2022-11-12T08:06:16.269Z,102844.91
2022-11-12T08:08:42.700Z,102846.53
2022-11-12T08:11:09.265Z,102844.13
2022-11-12T08:13:35.731Z,102855.00
2022-11-12T08:16:02.411Z,102846.66
2022-11-12T08:18:29.857Z,102846.31
2022-11-12T08:21:01.010Z,102850.06
2022-11-12T08:23:27.888Z,102856.28
2022-11-12T08:26:01.987Z,102854.66
2022-11-12T08:28:29.891Z,102863.44
2022-11-12T08:30:57.262Z,102865.06
2022-11-12T08:33:24.231Z,102854.84
2022-11-12T08:35:50.731Z,102866.28
2022-11-12T08:38:17.920Z,102853.50
2022-11-12T08:40:44.559Z,102851.00
2022-11-12T08:43:11.593Z,102848.72
2022-11-12T08:45:39.926Z,102848.88
2022-11-12T08:48:09.249Z,102849.13
2022-11-12T08:50:37.150Z,102854.13
2022-11-12T08:53:06.615Z,102859.28
2022-11-12T08:55:33.993Z,102844.72
2022-11-12T08:58:03.854Z,102849.09
2022-11-12T09:00:39.843Z,102847.66
2022-11-12T09:03:08.068Z,102849.34
2022-11-12T09:05:35.670Z,102847.00
2022-11-12T09:08:08.600Z,102827.34
2022-11-12T09:10:36.262Z,102824.09
2022-11-12T09:13:04.139Z,102819.81
2022-11-12T09:15:37.349Z,102820.25
2022-11-12T09:18:07.516Z,102819.41
2022-11-12T09:20:34.275Z,102817.13
2022-11-12T09:23:06.780Z,102816.22
2022-11-12T09:25:33.808Z,102812.81
2022-11-12T09:28:26.787Z,102808.09
2022-11-12T09:30:55.148Z,102814.94
2022-11-12T09:33:29.885Z,102822.53
2022-11-12T09:35:59.856Z,102811.38
2022-11-12T09:38:26.505Z,102813.34
2022-11-12T09:40:53.239Z,102828.19
2022-11-12T09:43:25.246Z,102834.41
2022-11-12T09:46:13.643Z,102827.75
2022-11-12T09:48:48.060Z,102827.06
2022-11-12T09:51:30.543Z,102832.16
2022-11-12T09:53:59.497Z,102845.16
2022-11-12T09:56:28.176Z,102830.78
2022-11-12T09:58:54.853Z,102839.03
2022-11-12T10:01:31.462Z,102836.00
2022-11-12T10:04:19.735Z,102845.13
2022-11-12T10:07:04.319Z,102847.22
2022-11-12T10:10:11.273Z,102840.81
2022-11-12T10:12:56.051Z,102835.34
2022-11-12T10:15:50.041Z,102839.13
2022-11-12T10:18:24.203Z,102837.56
2022-11-12T10:21:08.856Z,102837.00
2022-11-12T10:23:46.182Z,102821.47
2022-11-12T10:26:15.016Z,102831.81
2022-11-12T10:28:53.072Z,102824.50
2022-11-12T10:31:21.319Z,102834.22
2022-11-12T10:33:47.963Z,102823.97
2022-11-12T10:36:25.777Z,102821.19
2022-11-12T10:38:54.925Z,102815.47
2022-11-12T10:41:23.545Z,102821.97
2022-11-12T10:43:56.208Z,102808.63
2022-11-12T10:46:26.386Z,102816.78
2022-11-12T10:48:56.589Z,102810.28
2022-11-12T10:51:32.362Z,102807.50
2022-11-12T10:54:18.746Z,102796.97
2022-11-12T10:56:45.251Z,102796.50
2022-11-12T10:59:16.214Z,102793.16
2022-11-12T11:01:46.066Z,102790.56
2022-11-12T11:04:27.484Z,102786.28
2022-11-12T11:07:03.206Z,102783.63
2022-11-12T11:09:30.307Z,102780.56
2022-11-12T11:11:57.390Z,102778.97
2022-11-12T11:14:23.796Z,102780.63
2022-11-12T11:17:00.928Z,102771.72
2022-11-12T11:19:34.222Z,102772.44
2022-11-12T11:22:19.098Z,102770.81
2022-11-12T11:25:01.346Z,102778.91
2022-11-12T11:27:33.833Z,102775.53
2022-11-12T11:30:11.136Z,102776.66
2022-11-12T11:33:14.304Z,102773.44
2022-11-12T11:35:52.677Z,102776.16
2022-11-12T11:38:46.513Z,102775.97
2022-11-12T11:41:16.006Z,102766.53
2022-11-12T11:44:22.112Z,102769.47
2022-11-12T11:46:53.890Z,102766.16
2022-11-12T11:49:49.701Z,102762.72
2022-11-12T11:52:37.372Z,102754.47
2022-11-12T11:55:03.814Z,102755.22
2022-11-12T11:57:44.181Z,102750.34
2022-11-12T12:00:13.312Z,102751.00
2022-11-12T12:02:55.026Z,102751.94
2022-11-12T12:05:43.010Z,102747.25
2022-11-12T12:08:25.644Z,102744.25
2022-11-12T12:11:20.975Z,102747.81
2022-11-12T12:14:40.099Z,102737.59
2022-11-12T12:17:36.887Z,102730.03
2022-11-12T12:20:15.714Z,102719.63
2022-11-12T12:22:49.377Z,102718.34
2022-11-12T12:25:22.503Z,102717.91
2022-11-12T12:28:21.213Z,102726.78
2022-11-12T12:30:52.498Z,102723.91
2022-11-12T12:33:33.869Z,102720.88
2022-11-12T12:36:03.870Z,102717.22
2022-11-12T12:38:48.616Z,102712.16
2022-11-12T12:41:32.859Z,102703.16
2022-11-12T12:44:04.637Z,102709.97
2022-11-12T12:46:37.592Z,102709.81
2022-11-12T12:49:06.134Z,102704.09
2022-11-12T12:51:34.137Z,102696.50
2022-11-12T12:54:00.615Z,102683.47
2022-11-12T12:56:33.299Z,102685.13
2022-11-12T12:59:08.151Z,102682.94
2022-11-12T13:01:36.434Z,102678.31
2022-11-12T13:04:11.868Z,102679.78
2022-11-12T13:06:45.561Z,102670.72
2022-11-12T13:09:15.008Z,102664.25
2022-11-12T13:12:00.158Z,102662.63
2022-11-12T13:14:35.880Z,102668.81
2022-11-12T13:17:11.767Z,102657.53
2022-11-12T13:19:44.117Z,102661.72
2022-11-12T13:22:19.663Z,102656.00
2022-11-12T13:25:04.626Z,102659.13
2022-11-12T13:27:40.278Z,102659.88
2022-11-12T13:30:27.029Z,102660.69
2022-11-12T13:32:53.417Z,102661.56
2022-11-12T13:35:22.666Z,102665.88
2022-11-12T13:38:08.083Z,102655.91
2022-11-12T13:40:41.500Z,102653.88
2022-11-12T13:43:16.013Z,102653.34
2022-11-12T13:45:50.566Z,102649.91
2022-11-12T13:48:25.178Z,102658.34
2022-11-12T13:50:55.904Z,102650.56
2022-11-12T13:53:26.295Z,102646.22
2022-11-12T13:55:54.497Z,102640.41
2022-11-12T13:58:28.331Z,102641.16
2022-11-12T14:00:57.559Z,102647.69
2022-11-12T14:03:28.506Z,102648.47
2022-11-12T14:05:55.723Z,102659.78
2022-11-12T14:08:43.510Z,102654.31
2022-11-12T14:11:38.667Z,102652.94
2022-11-12T14:14:26.317Z,102654.47
2022-11-12T14:17:01.804Z,102652.81
2022-11-12T14:19:51.881Z,102655.75
2022-11-12T14:22:20.956Z,102649.59
2022-11-12T14:24:53.556Z,102653.38
2022-11-12T14:27:29.220Z,102653.25
2022-11-12T14:30:24.085Z,102651.75
2022-11-12T14:32:59.128Z,102643.91
2022-11-12T14:35:30.281Z,102655.53
2022-11-12T14:38:11.524Z,102656.44
2022-11-12T14:40:52.442Z,102652.16
2022-11-12T14:43:42.872Z,102645.19
2022-11-12T14:46:39.287Z,102639.31
2022-11-12T14:49:16.537Z,102630.47
2022-11-12T14:51:48.517Z,102640.59
2022-11-12T14:54:35.844Z,102632.19
2022-11-12T14:57:04.389Z,102626.56
2022-11-12T14:59:31.730Z,102623.88
2022-11-12T15:02:36.909Z,102627.47
2022-11-12T15:05:01.629Z,102627.06
2022-11-12T15:07:50.217Z,102624.94
2022-11-12T15:10:34.098Z,102627.78
2022-11-12T15:13:16.011Z,102635.94
2022-11-12T15:15:54.028Z,102635.66
2022-11-12T15:18:23.569Z,102635.63
2022-11-12T15:21:11.800Z,102639.03
2022-11-12T15:23:50.220Z,102641.50
2022-11-12T15:26:38.008Z,102641.88
2022-11-12T15:29:10.703Z,102641.03
2022-11-12T15:31:45.862Z,102642.59
2022-11-12T15:34:32.666Z,102632.97
2022-11-12T15:37:09.108Z,102634.63
2022-11-12T15:39:42.741Z,102635.19
2022-11-12T15:42:16.393Z,102628.78
2022-11-12T15:44:43.905Z,102629.91
2022-11-12T15:47:19.489Z,102624.56
2022-11-12T15:49:55.516Z,102620.72
2022-11-12T15:52:22.947Z,102617.75
2022-11-12T15:54:49.617Z,102626.91
2022-11-12T15:57:22.710Z,102623.16
2022-11-12T16:00:06.279Z,102619.16
2022-11-12T16:02:34.729Z,102612.31
2022-11-12T16:05:01.448Z,102616.66
2022-11-12T16:07:28.048Z,102611.22
2022-11-12T16:09:54.614Z,102610.50
2022-11-12T16:12:21.446Z,102601.03
2022-11-12T16:14:47.914Z,102600.13
2022-11-12T16:17:16.852Z,102597.56
2022-11-12T16:19:43.420Z,102603.88
2022-11-12T16:22:12.818Z,102607.69
2022-11-12T16:24:40.666Z,102605.72
2022-11-12T16:27:09.541Z,102604.47
2022-11-12T16:29:36.017Z,102613.53
2022-11-12T16:32:04.523Z,102601.13
2022-11-12T16:34:31.116Z,102595.94
2022-11-12T16:37:00.478Z,102599.53
2022-11-12T16:39:26.961Z,102591.19
2022-11-12T16:41:53.440Z,102599.19
2022-11-12T16:44:19.927Z,102599.25
2022-11-12T16:46:46.767Z,102601.09
2022-11-12T16:49:14.542Z,102611.34
2022-11-12T16:51:41.782Z,102601.00
2022-11-12T16:54:08.603Z,102608.22
2022-11-12T16:56:36.520Z,102611.38
2022-11-12T16:59:04.512Z,102611.38
2022-11-12T17:01:32.765Z,102606.53
2022-11-12T17:03:59.346Z,102612.66
2022-11-12T17:06:34.755Z,102610.97
2022-11-12T17:09:01.297Z,102609.09
2022-11-12T17:11:27.713Z,102607.16
2022-11-12T17:13:54.352Z,102606.69
2022-11-12T17:16:20.814Z,102612.47
2022-11-12T17:18:47.280Z,102608.25
2022-11-12T17:21:18.750Z,102612.81
2022-11-12T17:23:45.312Z,102609.66
2022-11-12T17:26:15.270Z,102612.50
2022-11-12T17:28:41.893Z,102619.25
2022-11-12T17:31:12.337Z,102614.25
2022-11-12T17:33:44.183Z,102615.69
2022-11-12T17:36:14.018Z,102610.91
2022-11-12T17:38:41.415Z,102610.03
2022-11-12T17:41:09.979Z,102607.56
2022-11-12T17:43:37.416Z,102602.06
2022-11-12T17:46:06.096Z,102605.97
2022-11-12T17:48:34.258Z,102602.06
2022-11-12T17:51:20.905Z,102606.22
2022-11-12T17:53:47.751Z,102601.44
2022-11-12T17:56:18.605Z,102601.28
2022-11-12T17:58:45.688Z,102597.25
2022-11-12T18:01:20.912Z,102604.41
2022-11-12T18:03:50.268Z,102596.91
2022-11-12T18:06:28.883Z,102595.06
2022-11-12T18:09:07.174Z,102597.06
2022-11-12T18:11:49.296Z,102598.88
2022-11-12T18:14:15.964Z,102588.56
2022-11-12T18:16:43.189Z,102597.53
2022-11-12T18:19:11.046Z,102591.50
2022-11-12T18:21:39.880Z,102591.66
2022-11-12T18:24:07.403Z,102598.16
2022-11-12T18:26:34.083Z,102600.47
2022-11-12T18:29:00.665Z,102594.59
2022-11-12T18:31:28.297Z,102593.72
2022-11-12T18:33:55.655Z,102595.31
2022-11-12T18:36:24.789Z,102590.53
2022-11-12T18:38:52.934Z,102596.31
2022-11-12T18:41:22.878Z,102589.91
2022-11-12T18:43:49.291Z,102585.50
2022-11-12T18:46:15.725Z,102586.13
2022-11-12T18:48:42.210Z,102593.38
2022-11-12T18:51:11.648Z,102589.81
2022-11-12T18:53:39.479Z,102590.03
2022-11-12T18:56:13.264Z,102587.34
2022-11-12T18:58:41.217Z,102581.59
2022-11-12T19:01:11.054Z,102590.91
2022-11-12T19:03:37.942Z,102582.06
2022-11-12T19:06:06.675Z,102574.19
2022-11-12T19:08:34.002Z,102580.34
2022-11-12T19:11:06.645Z,102584.88
2022-11-12T19:13:33.922Z,102585.63
2022-11-12T19:16:05.936Z,102593.38
2022-11-12T19:18:33.356Z,102593.50
2022-11-12T19:21:04.935Z,102588.09
2022-11-12T19:23:31.917Z,102585.25
2022-11-12T19:26:06.686Z,102586.00
2022-11-12T19:28:34.788Z,102587.72
2022-11-12T19:31:06.590Z,102583.44
2022-11-12T19:33:33.836Z,102593.13
2022-11-12T19:36:06.166Z,102585.13
2022-11-12T19:38:33.307Z,102583.94
2022-11-12T19:41:04.910Z,102588.31
2022-11-12T19:43:32.069Z,102589.56
2022-11-12T19:45:58.665Z,102586.13
2022-11-12T19:48:25.585Z,102579.09
2022-11-12T19:50:53.561Z,102577.00
2022-11-12T19:53:20.366Z,102579.22
2022-11-12T19:55:46.791Z,102578.88
2022-11-12T19:58:13.349Z,102572.97
2022-11-12T20:00:39.814Z,102569.50
2022-11-12T20:03:06.423Z,102573.31
2022-11-12T20:05:32.866Z,102577.78
2022-11-12T20:07:59.268Z,102565.00
2022-11-12T20:10:25.704Z,102567.22
2022-11-12T20:12:52.110Z,102569.16
2022-11-12T20:15:18.654Z,102564.38
2022-11-12T20:17:45.065Z,102564.72
2022-11-12T20:20:12.111Z,102570.50
2022-11-12T20:22:38.508Z,102560.78
2022-11-12T20:25:05.309Z,102563.88
2022-11-12T20:27:31.815Z,102563.63
2022-11-12T20:29:58.230Z,102551.34
2022-11-12T20:32:25.853Z,102556.13
2022-11-12T20:34:52.273Z,102554.28
2022-11-12T20:37:18.721Z,102552.44
2022-11-12T20:39:45.759Z,102549.66
2022-11-12T20:42:12.357Z,102551.56
2022-11-12T20:44:38.886Z,102551.34
2022-11-12T20:47:05.303Z,102551.09
2022-11-12T20:49:31.816Z,102539.69
2022-11-12T20:51:58.374Z,102544.09
2022-11-12T20:54:25.089Z,102544.81
2022-11-12T20:56:51.803Z,102545.78
2022-11-12T20:59:18.192Z,102547.28
2022-11-12T21:01:44.812Z,102544.06
2022-11-12T21:04:12.395Z,102536.34
2022-11-12T21:06:39.264Z,102534.75
2022-11-12T21:09:06.142Z,102537.53
2022-11-12T21:11:32.693Z,102527.53
2022-11-12T21:14:00.967Z,102528.19
2022-11-12T21:16:27.520Z,102527.03
2022-11-12T21:18:53.967Z,102536.47
2022-11-12T21:21:21.368Z,102529.09
2022-11-12T21:23:50.245Z,102528.78
2022-11-12T21:26:19.937Z,102529.88
2022-11-12T21:28:54.754Z,102524.59
2022-11-12T21:31:22.429Z,102526.41
2022-11-12T21:33:53.908Z,102517.22
2022-11-12T21:36:21.460Z,102527.63
2022-11-12T21:38:49.179Z,102526.53
2022-11-12T21:41:18.155Z,102519.69
2022-11-12T21:43:45.729Z,102513.44
2022-11-12T21:46:16.928Z,102522.97
2022-11-12T21:48:44.008Z,102529.88
2022-11-12T21:51:13.178Z,102523.88
2022-11-12T21:53:41.581Z,102526.44
2022-11-12T21:56:12.208Z,102522.03
2022-11-12T21:58:39.590Z,102517.72
2022-11-12T22:01:10.685Z,102512.81
2022-11-12T22:03:38.165Z,102513.06
2022-11-12T22:06:05.650Z,102514.78
2022-11-12T22:08:32.969Z,102509.88
2022-11-12T22:11:10.467Z,102512.44
2022-11-12T22:13:37.886Z,102499.25
2022-11-12T22:16:06.593Z,102511.50
2022-11-12T22:18:34.294Z,102508.41
2022-11-12T22:21:06.750Z,102504.47
2022-11-12T22:23:35.975Z,102493.03
2022-11-12T22:26:04.794Z,102490.22
2022-11-12T22:28:31.565Z,102489.50
2022-11-12T22:31:06.873Z,102487.91
2022-11-12T22:33:33.827Z,102491.94
2022-11-12T22:36:15.631Z,102493.28
2022-11-12T22:38:44.624Z,102486.41
2022-11-12T22:41:19.006Z,102483.38
2022-11-12T22:43:49.601Z,102481.53
2022-11-12T22:46:19.130Z,102478.34
2022-11-12T22:48:45.897Z,102482.97
2022-11-12T22:51:24.129Z,102474.66
2022-11-12T22:53:55.649Z,102472.19
2022-11-12T22:56:23.195Z,102475.38
2022-11-12T22:58:49.879Z,102475.50
2022-11-12T23:01:30.902Z,102480.28
2022-11-12T23:03:59.379Z,102477.72
2022-11-12T23:06:27.172Z,102478.81
2022-11-12T23:08:54.065Z,102481.16
2022-11-12T23:11:21.257Z,102480.41
2022-11-12T23:13:48.707Z,102483.13
2022-11-12T23:16:18.125Z,102473.91
2022-11-12T23:18:45.302Z,102472.94
2022-11-12T23:21:18.084Z,102465.31
2022-11-12T23:23:44.580Z,102471.31
2022-11-12T23:26:15.601Z,102462.34
2022-11-12T23:28:42.314Z,102462.84
2022-11-12T23:31:17.919Z,102459.53
2022-11-12T23:33:52.341Z,102455.63
2022-11-12T23:36:20.049Z,102454.03
2022-11-12T23:38:46.918Z,102452.91
2022-11-12T23:41:15.950Z,102457.31
2022-11-12T23:43:42.918Z,102459.03
2022-11-12T23:46:09.979Z,102456.81
2022-11-12T23:48:36.716Z,102455.97
2022-11-12T23:51:06.030Z,102452.34
2022-11-12T23:53:33.854Z,102455.06
2022-11-12T23:56:01.518Z,102455.38
2022-11-12T23:58:28.473Z,102451.31
